sensor_id;sensor_type;location;lat;lon;timestamp;temperature;humidity
24470;DHT22;12635;50.852;5.676;2023-01-25T00:01:50;0.80;99.90
24470;DHT22;12635;50.852;5.676;2023-01-25T00:04:17;0.80;99.90
24470;DHT22;12635;50.852;5.676;2023-01-25T00:06:44;0.80;99.90
24470;DHT22;12635;50.852;5.676;2023-01-25T00:09:11;0.80;99.90
24470;DHT22;12635;50.852;5.676;2023-01-25T00:11:38;0.80;99.90
24470;DHT22;12635;50.852;5.676;2023-01-25T00:14:08;0.80;99.90
24470;DHT22;12635;50.852;5.676;2023-01-25T00:16:35;0.80;99.90
24470;DHT22;12635;50.852;5.676;2023-01-25T00:19:02;0.80;99.90
24470;DHT22;12635;50.852;5.676;2023-01-25T00:21:29;0.80;99.90
24470;DHT22;12635;50.852;5.676;2023-01-25T00:23:56;0.80;99.90
24470;DHT22;12635;50.852;5.676;2023-01-25T00:26:23;0.80;99.90
24470;DHT22;12635;50.852;5.676;2023-01-25T00:28:50;0.80;99.90
24470;DHT22;12635;50.852;5.676;2023-01-25T00:31:25;0.80;99.90
24470;DHT22;12635;50.852;5.676;2023-01-25T00:33:59;0.80;99.90
24470;DHT22;12635;50.852;5.676;2023-01-25T00:36:30;0.80;99.90
24470;DHT22;12635;50.852;5.676;2023-01-25T00:38:58;0.90;99.90
24470;DHT22;12635;50.852;5.676;2023-01-25T00:41:25;0.90;99.90
24470;DHT22;12635;50.852;5.676;2023-01-25T00:43:52;0.80;99.90
24470;DHT22;12635;50.852;5.676;2023-01-25T00:46:20;0.90;99.90
24470;DHT22;12635;50.852;5.676;2023-01-25T00:48:47;0.90;99.90
24470;DHT22;12635;50.852;5.676;2023-01-25T00:51:14;0.90;99.90
24470;DHT22;12635;50.852;5.676;2023-01-25T00:53:41;0.90;99.90
24470;DHT22;12635;50.852;5.676;2023-01-25T00:56:08;0.80;99.90
24470;DHT22;12635;50.852;5.676;2023-01-25T00:58:34;0.80;99.90
24470;DHT22;12635;50.852;5.676;2023-01-25T01:01:01;0.80;99.90
24470;DHT22;12635;50.852;5.676;2023-01-25T01:03:30;0.80;99.90
24470;DHT22;12635;50.852;5.676;2023-01-25T01:06:00;0.80;99.90
24470;DHT22;12635;50.852;5.676;2023-01-25T01:08:27;0.80;99.90
24470;DHT22;12635;50.852;5.676;2023-01-25T01:10:57;0.70;99.90
24470;DHT22;12635;50.852;5.676;2023-01-25T01:13:25;0.70;99.90
24470;DHT22;12635;50.852;5.676;2023-01-25T01:15:52;0.60;99.90
24470;DHT22;12635;50.852;5.676;2023-01-25T01:18:19;0.60;99.90
24470;DHT22;12635;50.852;5.676;2023-01-25T01:20:48;0.60;99.90
24470;DHT22;12635;50.852;5.676;2023-01-25T01:23:15;0.60;99.90
24470;DHT22;12635;50.852;5.676;2023-01-25T01:25:42;0.50;99.90
24470;DHT22;12635;50.852;5.676;2023-01-25T01:28:09;0.50;99.90
24470;DHT22;12635;50.852;5.676;2023-01-25T01:30:36;0.50;99.90
24470;DHT22;12635;50.852;5.676;2023-01-25T01:33:03;0.50;99.90
24470;DHT22;12635;50.852;5.676;2023-01-25T01:35:30;0.50;99.90
24470;DHT22;12635;50.852;5.676;2023-01-25T01:37:59;0.50;99.90
24470;DHT22;12635;50.852;5.676;2023-01-25T01:40:26;0.50;99.90
24470;DHT22;12635;50.852;5.676;2023-01-25T01:42:57;0.50;99.90
24470;DHT22;12635;50.852;5.676;2023-01-25T01:48:24;0.50;99.90
24470;DHT22;12635;50.852;5.676;2023-01-25T01:50:53;0.50;99.90
24470;DHT22;12635;50.852;5.676;2023-01-25T01:53:22;0.50;99.90
24470;DHT22;12635;50.852;5.676;2023-01-25T01:55:50;0.50;99.90
24470;DHT22;12635;50.852;5.676;2023-01-25T01:58:17;0.50;99.90
24470;DHT22;12635;50.852;5.676;2023-01-25T02:00:44;0.50;99.90
24470;DHT22;12635;50.852;5.676;2023-01-25T02:03:11;0.50;99.90
24470;DHT22;12635;50.852;5.676;2023-01-25T02:05:40;0.40;99.90
24470;DHT22;12635;50.852;5.676;2023-01-25T02:08:09;0.40;99.90
24470;DHT22;12635;50.852;5.676;2023-01-25T02:10:39;0.40;99.90
24470;DHT22;12635;50.852;5.676;2023-01-25T02:13:06;0.40;99.90
24470;DHT22;12635;50.852;5.676;2023-01-25T02:15:35;0.40;99.90
24470;DHT22;12635;50.852;5.676;2023-01-25T02:18:04;0.40;99.90
24470;DHT22;12635;50.852;5.676;2023-01-25T02:20:32;0.40;99.90
24470;DHT22;12635;50.852;5.676;2023-01-25T02:23:02;0.40;99.90
24470;DHT22;12635;50.852;5.676;2023-01-25T02:25:34;0.40;99.90
24470;DHT22;12635;50.852;5.676;2023-01-25T02:28:02;0.40;99.90
24470;DHT22;12635;50.852;5.676;2023-01-25T02:30:31;0.50;99.90
24470;DHT22;12635;50.852;5.676;2023-01-25T02:32:59;0.50;99.90
24470;DHT22;12635;50.852;5.676;2023-01-25T02:35:35;0.50;99.90
24470;DHT22;12635;50.852;5.676;2023-01-25T02:38:03;0.50;99.90
24470;DHT22;12635;50.852;5.676;2023-01-25T02:40:30;0.40;99.90
24470;DHT22;12635;50.852;5.676;2023-01-25T02:43:00;0.40;99.90
24470;DHT22;12635;50.852;5.676;2023-01-25T02:45:27;0.40;99.90
24470;DHT22;12635;50.852;5.676;2023-01-25T02:47:55;0.40;99.90
24470;DHT22;12635;50.852;5.676;2023-01-25T02:50:22;0.40;99.90
24470;DHT22;12635;50.852;5.676;2023-01-25T02:52:48;0.40;99.90
24470;DHT22;12635;50.852;5.676;2023-01-25T02:55:15;0.30;99.90
24470;DHT22;12635;50.852;5.676;2023-01-25T02:57:42;0.30;99.90
24470;DHT22;12635;50.852;5.676;2023-01-25T03:00:11;0.30;99.90
24470;DHT22;12635;50.852;5.676;2023-01-25T03:02:38;0.30;99.90
24470;DHT22;12635;50.852;5.676;2023-01-25T03:05:05;0.30;99.90
24470;DHT22;12635;50.852;5.676;2023-01-25T03:07:32;0.30;99.90
24470;DHT22;12635;50.852;5.676;2023-01-25T03:09:59;0.30;99.90
24470;DHT22;12635;50.852;5.676;2023-01-25T03:12:25;0.40;99.90
24470;DHT22;12635;50.852;5.676;2023-01-25T03:14:52;0.40;99.90
24470;DHT22;12635;50.852;5.676;2023-01-25T03:17:21;0.30;99.90
24470;DHT22;12635;50.852;5.676;2023-01-25T03:19:49;0.40;99.90
24470;DHT22;12635;50.852;5.676;2023-01-25T03:22:18;0.40;99.90
24470;DHT22;12635;50.852;5.676;2023-01-25T03:24:45;0.40;99.90
24470;DHT22;12635;50.852;5.676;2023-01-25T03:27:12;0.30;99.90
24470;DHT22;12635;50.852;5.676;2023-01-25T03:29:41;0.40;99.90
24470;DHT22;12635;50.852;5.676;2023-01-25T03:32:08;0.40;99.90
24470;DHT22;12635;50.852;5.676;2023-01-25T03:34:36;0.30;99.90
24470;DHT22;12635;50.852;5.676;2023-01-25T03:37:03;0.30;99.90
24470;DHT22;12635;50.852;5.676;2023-01-25T03:39:30;0.30;99.90
24470;DHT22;12635;50.852;5.676;2023-01-25T03:41:57;0.40;99.90
24470;DHT22;12635;50.852;5.676;2023-01-25T03:44:24;0.40;99.90
24470;DHT22;12635;50.852;5.676;2023-01-25T03:46:51;0.40;99.90
24470;DHT22;12635;50.852;5.676;2023-01-25T03:49:17;0.40;99.90
24470;DHT22;12635;50.852;5.676;2023-01-25T03:51:46;0.40;99.90
24470;DHT22;12635;50.852;5.676;2023-01-25T03:54:13;0.30;99.90
24470;DHT22;12635;50.852;5.676;2023-01-25T03:56:39;0.30;99.90
24470;DHT22;12635;50.852;5.676;2023-01-25T03:59:06;0.30;99.90
24470;DHT22;12635;50.852;5.676;2023-01-25T04:01:33;0.30;99.90
24470;DHT22;12635;50.852;5.676;2023-01-25T04:04:00;0.30;99.90
24470;DHT22;12635;50.852;5.676;2023-01-25T04:06:27;0.30;99.90
24470;DHT22;12635;50.852;5.676;2023-01-25T04:08:55;0.30;99.90
24470;DHT22;12635;50.852;5.676;2023-01-25T04:11:22;0.30;99.90
24470;DHT22;12635;50.852;5.676;2023-01-25T04:13:49;0.30;99.90
24470;DHT22;12635;50.852;5.676;2023-01-25T04:16:16;0.30;99.90
24470;DHT22;12635;50.852;5.676;2023-01-25T04:18:43;0.30;99.90
24470;DHT22;12635;50.852;5.676;2023-01-25T04:21:10;0.30;99.90
24470;DHT22;12635;50.852;5.676;2023-01-25T04:23:37;0.20;99.90
24470;DHT22;12635;50.852;5.676;2023-01-25T04:26:06;0.20;99.90
24470;DHT22;12635;50.852;5.676;2023-01-25T04:28:34;0.30;99.90
24470;DHT22;12635;50.852;5.676;2023-01-25T04:31:01;0.20;99.90
24470;DHT22;12635;50.852;5.676;2023-01-25T04:33:30;0.20;99.90
24470;DHT22;12635;50.852;5.676;2023-01-25T04:35:57;0.20;99.90
24470;DHT22;12635;50.852;5.676;2023-01-25T04:38:24;0.20;99.90
24470;DHT22;12635;50.852;5.676;2023-01-25T04:40:51;0.20;99.90
24470;DHT22;12635;50.852;5.676;2023-01-25T04:43:20;0.20;99.90
24470;DHT22;12635;50.852;5.676;2023-01-25T04:45:47;0.20;99.90
24470;DHT22;12635;50.852;5.676;2023-01-25T04:48:14;0.20;99.90
24470;DHT22;12635;50.852;5.676;2023-01-25T04:50:41;0.20;99.90
24470;DHT22;12635;50.852;5.676;2023-01-25T04:53:08;0.20;99.90
24470;DHT22;12635;50.852;5.676;2023-01-25T04:55:35;0.20;99.90
24470;DHT22;12635;50.852;5.676;2023-01-25T04:58:03;0.20;99.90
24470;DHT22;12635;50.852;5.676;2023-01-25T05:00:31;0.20;99.90
24470;DHT22;12635;50.852;5.676;2023-01-25T05:02:58;0.20;99.90
24470;DHT22;12635;50.852;5.676;2023-01-25T05:05:25;0.20;99.90
24470;DHT22;12635;50.852;5.676;2023-01-25T05:07:52;0.20;99.90
24470;DHT22;12635;50.852;5.676;2023-01-25T05:10:18;0.20;99.90
24470;DHT22;12635;50.852;5.676;2023-01-25T05:12:45;0.20;99.90
24470;DHT22;12635;50.852;5.676;2023-01-25T05:15:12;0.20;99.90
24470;DHT22;12635;50.852;5.676;2023-01-25T05:17:40;0.20;99.90
24470;DHT22;12635;50.852;5.676;2023-01-25T05:20:08;0.20;99.90
24470;DHT22;12635;50.852;5.676;2023-01-25T05:22:35;0.20;99.90
24470;DHT22;12635;50.852;5.676;2023-01-25T05:25:02;0.20;99.90
24470;DHT22;12635;50.852;5.676;2023-01-25T05:27:30;0.20;99.90
24470;DHT22;12635;50.852;5.676;2023-01-25T05:29:57;0.20;99.90
24470;DHT22;12635;50.852;5.676;2023-01-25T05:32:24;0.20;99.90
24470;DHT22;12635;50.852;5.676;2023-01-25T05:34:52;0.20;99.90
24470;DHT22;12635;50.852;5.676;2023-01-25T05:37:20;0.20;99.90
24470;DHT22;12635;50.852;5.676;2023-01-25T05:39:47;0.20;99.90
24470;DHT22;12635;50.852;5.676;2023-01-25T05:42:15;0.20;99.90
24470;DHT22;12635;50.852;5.676;2023-01-25T05:44:42;0.20;99.90
24470;DHT22;12635;50.852;5.676;2023-01-25T05:47:10;0.10;99.90
24470;DHT22;12635;50.852;5.676;2023-01-25T05:49:37;0.10;99.90
24470;DHT22;12635;50.852;5.676;2023-01-25T05:52:06;0.10;99.90
24470;DHT22;12635;50.852;5.676;2023-01-25T05:54:32;0.10;99.90
24470;DHT22;12635;50.852;5.676;2023-01-25T05:56:59;0.20;99.90
24470;DHT22;12635;50.852;5.676;2023-01-25T05:59:27;0.20;99.90
24470;DHT22;12635;50.852;5.676;2023-01-25T06:01:54;0.20;99.90
24470;DHT22;12635;50.852;5.676;2023-01-25T06:04:20;0.10;99.90
24470;DHT22;12635;50.852;5.676;2023-01-25T06:06:47;0.10;99.90
24470;DHT22;12635;50.852;5.676;2023-01-25T06:09:16;0.10;99.90
24470;DHT22;12635;50.852;5.676;2023-01-25T06:11:42;0.10;99.90
24470;DHT22;12635;50.852;5.676;2023-01-25T06:14:10;0.10;99.90
24470;DHT22;12635;50.852;5.676;2023-01-25T06:16:37;0.10;99.90
24470;DHT22;12635;50.852;5.676;2023-01-25T06:19:04;0.10;99.90
24470;DHT22;12635;50.852;5.676;2023-01-25T06:21:31;0.10;99.90
24470;DHT22;12635;50.852;5.676;2023-01-25T06:23:59;0.10;99.90
24470;DHT22;12635;50.852;5.676;2023-01-25T06:26:27;0.20;99.90
24470;DHT22;12635;50.852;5.676;2023-01-25T06:28:54;0.10;99.90
24470;DHT22;12635;50.852;5.676;2023-01-25T06:31:21;0.10;99.90
24470;DHT22;12635;50.852;5.676;2023-01-25T06:33:48;0.10;99.90
24470;DHT22;12635;50.852;5.676;2023-01-25T06:36:17;0.10;99.90
24470;DHT22;12635;50.852;5.676;2023-01-25T06:38:46;0.10;99.90
24470;DHT22;12635;50.852;5.676;2023-01-25T06:41:14;0.10;99.90
24470;DHT22;12635;50.852;5.676;2023-01-25T06:43:42;0.10;99.90
24470;DHT22;12635;50.852;5.676;2023-01-25T06:46:09;0.10;99.90
24470;DHT22;12635;50.852;5.676;2023-01-25T06:48:37;0.00;99.90
24470;DHT22;12635;50.852;5.676;2023-01-25T06:51:04;0.10;99.90
24470;DHT22;12635;50.852;5.676;2023-01-25T06:53:32;0.10;99.90
24470;DHT22;12635;50.852;5.676;2023-01-25T06:56:01;0.10;99.90
24470;DHT22;12635;50.852;5.676;2023-01-25T06:58:28;0.00;99.90
24470;DHT22;12635;50.852;5.676;2023-01-25T07:01:00;0.10;99.90
24470;DHT22;12635;50.852;5.676;2023-01-25T07:03:27;0.10;99.90
24470;DHT22;12635;50.852;5.676;2023-01-25T07:05:57;0.10;99.90
24470;DHT22;12635;50.852;5.676;2023-01-25T07:08:24;0.10;99.90
24470;DHT22;12635;50.852;5.676;2023-01-25T07:10:54;0.10;99.90
24470;DHT22;12635;50.852;5.676;2023-01-25T07:13:22;0.10;99.90
24470;DHT22;12635;50.852;5.676;2023-01-25T07:15:52;0.20;99.90
24470;DHT22;12635;50.852;5.676;2023-01-25T07:18:20;0.10;99.90
24470;DHT22;12635;50.852;5.676;2023-01-25T07:20:47;0.10;99.90
24470;DHT22;12635;50.852;5.676;2023-01-25T07:23:14;0.00;99.90
24470;DHT22;12635;50.852;5.676;2023-01-25T07:25:44;0.10;99.90
24470;DHT22;12635;50.852;5.676;2023-01-25T07:28:11;0.10;99.90
24470;DHT22;12635;50.852;5.676;2023-01-25T07:30:39;0.10;99.90
24470;DHT22;12635;50.852;5.676;2023-01-25T07:33:05;0.10;99.90
24470;DHT22;12635;50.852;5.676;2023-01-25T07:35:34;0.10;99.90
24470;DHT22;12635;50.852;5.676;2023-01-25T07:38:01;0.10;99.90
24470;DHT22;12635;50.852;5.676;2023-01-25T07:40:28;0.10;99.90
24470;DHT22;12635;50.852;5.676;2023-01-25T07:42:55;0.10;99.90
24470;DHT22;12635;50.852;5.676;2023-01-25T07:45:23;0.00;99.90
24470;DHT22;12635;50.852;5.676;2023-01-25T07:47:55;0.10;99.90
24470;DHT22;12635;50.852;5.676;2023-01-25T07:50:21;0.10;99.90
24470;DHT22;12635;50.852;5.676;2023-01-25T07:52:50;0.10;99.90
24470;DHT22;12635;50.852;5.676;2023-01-25T07:55:17;0.10;99.90
24470;DHT22;12635;50.852;5.676;2023-01-25T07:57:43;0.00;99.90
24470;DHT22;12635;50.852;5.676;2023-01-25T08:00:11;0.10;99.90
24470;DHT22;12635;50.852;5.676;2023-01-25T08:02:38;0.10;99.90
24470;DHT22;12635;50.852;5.676;2023-01-25T08:05:05;0.10;99.90
24470;DHT22;12635;50.852;5.676;2023-01-25T08:07:32;0.10;99.90
24470;DHT22;12635;50.852;5.676;2023-01-25T08:10:00;0.10;99.90
24470;DHT22;12635;50.852;5.676;2023-01-25T08:12:27;0.10;99.90
24470;DHT22;12635;50.852;5.676;2023-01-25T08:14:54;0.10;99.90
24470;DHT22;12635;50.852;5.676;2023-01-25T08:17:21;0.20;99.90
24470;DHT22;12635;50.852;5.676;2023-01-25T08:19:48;0.20;99.90
24470;DHT22;12635;50.852;5.676;2023-01-25T08:22:14;0.20;99.90
24470;DHT22;12635;50.852;5.676;2023-01-25T08:24:41;0.20;99.90
24470;DHT22;12635;50.852;5.676;2023-01-25T08:27:10;0.20;99.90
24470;DHT22;12635;50.852;5.676;2023-01-25T08:29:37;0.20;99.90
24470;DHT22;12635;50.852;5.676;2023-01-25T08:32:04;0.20;99.90
24470;DHT22;12635;50.852;5.676;2023-01-25T08:34:32;0.20;99.90
24470;DHT22;12635;50.852;5.676;2023-01-25T08:36:59;0.10;99.90
24470;DHT22;12635;50.852;5.676;2023-01-25T08:39:26;0.10;99.90
24470;DHT22;12635;50.852;5.676;2023-01-25T08:41:53;0.20;99.90
24470;DHT22;12635;50.852;5.676;2023-01-25T08:44:21;0.20;99.90
24470;DHT22;12635;50.852;5.676;2023-01-25T08:46:50;0.20;99.90
24470;DHT22;12635;50.852;5.676;2023-01-25T08:49:17;0.30;99.90
24470;DHT22;12635;50.852;5.676;2023-01-25T08:51:44;0.40;99.90
24470;DHT22;12635;50.852;5.676;2023-01-25T08:54:12;0.40;99.90
24470;DHT22;12635;50.852;5.676;2023-01-25T08:56:39;0.30;99.90
24470;DHT22;12635;50.852;5.676;2023-01-25T08:59:07;0.30;99.90
24470;DHT22;12635;50.852;5.676;2023-01-25T09:01:37;0.30;99.90
24470;DHT22;12635;50.852;5.676;2023-01-25T09:04:04;0.30;99.90
24470;DHT22;12635;50.852;5.676;2023-01-25T09:06:31;0.30;99.90
24470;DHT22;12635;50.852;5.676;2023-01-25T09:08:58;0.30;99.90
24470;DHT22;12635;50.852;5.676;2023-01-25T09:11:25;0.30;99.90
24470;DHT22;12635;50.852;5.676;2023-01-25T09:13:52;0.20;99.90
24470;DHT22;12635;50.852;5.676;2023-01-25T09:16:20;0.20;99.90
24470;DHT22;12635;50.852;5.676;2023-01-25T09:18:54;0.20;99.90
24470;DHT22;12635;50.852;5.676;2023-01-25T09:21:21;0.20;99.90
24470;DHT22;12635;50.852;5.676;2023-01-25T09:23:48;0.20;99.90
24470;DHT22;12635;50.852;5.676;2023-01-25T09:26:15;0.10;99.90
24470;DHT22;12635;50.852;5.676;2023-01-25T09:28:45;0.10;99.90
24470;DHT22;12635;50.852;5.676;2023-01-25T09:31:12;0.20;99.90
24470;DHT22;12635;50.852;5.676;2023-01-25T09:33:39;0.20;99.90
24470;DHT22;12635;50.852;5.676;2023-01-25T09:36:08;0.10;99.90
24470;DHT22;12635;50.852;5.676;2023-01-25T09:38:35;0.20;99.90
24470;DHT22;12635;50.852;5.676;2023-01-25T09:41:06;0.20;99.90
24470;DHT22;12635;50.852;5.676;2023-01-25T09:43:45;0.30;99.90
24470;DHT22;12635;50.852;5.676;2023-01-25T09:46:17;0.30;99.90
24470;DHT22;12635;50.852;5.676;2023-01-25T09:48:46;0.30;99.90
24470;DHT22;12635;50.852;5.676;2023-01-25T09:51:19;0.20;99.90
24470;DHT22;12635;50.852;5.676;2023-01-25T09:53:48;0.20;99.90
24470;DHT22;12635;50.852;5.676;2023-01-25T09:56:21;0.20;99.90
24470;DHT22;12635;50.852;5.676;2023-01-25T09:58:49;0.10;99.90
24470;DHT22;12635;50.852;5.676;2023-01-25T10:01:19;0.10;99.90
24470;DHT22;12635;50.852;5.676;2023-01-25T10:03:52;0.10;99.90
24470;DHT22;12635;50.852;5.676;2023-01-25T10:06:22;0.10;99.90
24470;DHT22;12635;50.852;5.676;2023-01-25T10:08:51;0.10;99.90
24470;DHT22;12635;50.852;5.676;2023-01-25T10:11:20;0.10;99.90
24470;DHT22;12635;50.852;5.676;2023-01-25T10:13:52;0.10;99.90
24470;DHT22;12635;50.852;5.676;2023-01-25T10:16:21;0.20;99.90
24470;DHT22;12635;50.852;5.676;2023-01-25T10:18:53;0.20;99.90
24470;DHT22;12635;50.852;5.676;2023-01-25T10:21:25;0.10;99.90
24470;DHT22;12635;50.852;5.676;2023-01-25T10:26:43;0.20;99.90
24470;DHT22;12635;50.852;5.676;2023-01-25T10:29:13;0.20;99.90
24470;DHT22;12635;50.852;5.676;2023-01-25T10:31:45;0.30;99.90
24470;DHT22;12635;50.852;5.676;2023-01-25T10:34:15;0.20;99.90
24470;DHT22;12635;50.852;5.676;2023-01-25T10:36:46;0.20;99.90
24470;DHT22;12635;50.852;5.676;2023-01-25T10:39:13;0.20;99.90
24470;DHT22;12635;50.852;5.676;2023-01-25T10:41:41;0.20;99.90
24470;DHT22;12635;50.852;5.676;2023-01-25T10:44:09;0.20;99.90
24470;DHT22;12635;50.852;5.676;2023-01-25T10:46:51;0.20;99.90
24470;DHT22;12635;50.852;5.676;2023-01-25T10:49:20;0.20;99.90
24470;DHT22;12635;50.852;5.676;2023-01-25T10:51:50;0.20;99.90
24470;DHT22;12635;50.852;5.676;2023-01-25T10:54:17;0.10;99.90
24470;DHT22;12635;50.852;5.676;2023-01-25T10:56:44;0.10;99.90
24470;DHT22;12635;50.852;5.676;2023-01-25T10:59:16;0.10;99.90
24470;DHT22;12635;50.852;5.676;2023-01-25T11:01:43;0.10;99.90
24470;DHT22;12635;50.852;5.676;2023-01-25T11:04:23;0.20;99.90
24470;DHT22;12635;50.852;5.676;2023-01-25T11:06:52;0.10;99.90
24470;DHT22;12635;50.852;5.676;2023-01-25T11:09:29;0.30;99.90
24470;DHT22;12635;50.852;5.676;2023-01-25T11:11:57;0.30;99.90
24470;DHT22;12635;50.852;5.676;2023-01-25T11:14:24;0.50;99.90
24470;DHT22;12635;50.852;5.676;2023-01-25T11:16:53;0.40;99.90
24470;DHT22;12635;50.852;5.676;2023-01-25T11:19:23;0.40;99.90
24470;DHT22;12635;50.852;5.676;2023-01-25T11:21:50;0.60;99.90
24470;DHT22;12635;50.852;5.676;2023-01-25T11:24:19;0.50;99.90
24470;DHT22;12635;50.852;5.676;2023-01-25T11:26:46;0.40;99.90
24470;DHT22;12635;50.852;5.676;2023-01-25T11:29:14;0.30;99.90
24470;DHT22;12635;50.852;5.676;2023-01-25T11:31:41;0.30;99.90
24470;DHT22;12635;50.852;5.676;2023-01-25T11:34:10;0.20;99.90
24470;DHT22;12635;50.852;5.676;2023-01-25T11:36:41;0.20;99.90
24470;DHT22;12635;50.852;5.676;2023-01-25T11:39:11;0.30;99.90
24470;DHT22;12635;50.852;5.676;2023-01-25T11:41:55;0.20;99.90
24470;DHT22;12635;50.852;5.676;2023-01-25T11:44:42;0.20;99.90
24470;DHT22;12635;50.852;5.676;2023-01-25T11:47:16;0.20;99.90
24470;DHT22;12635;50.852;5.676;2023-01-25T11:49:49;0.20;99.90
24470;DHT22;12635;50.852;5.676;2023-01-25T11:52:21;0.20;99.90
24470;DHT22;12635;50.852;5.676;2023-01-25T11:54:51;0.20;99.90
24470;DHT22;12635;50.852;5.676;2023-01-25T11:57:31;0.30;99.90
24470;DHT22;12635;50.852;5.676;2023-01-25T12:00:03;0.20;99.90
24470;DHT22;12635;50.852;5.676;2023-01-25T12:02:43;0.30;99.90
24470;DHT22;12635;50.852;5.676;2023-01-25T12:05:16;0.30;99.90
24470;DHT22;12635;50.852;5.676;2023-01-25T12:07:47;0.20;99.90
24470;DHT22;12635;50.852;5.676;2023-01-25T12:10:19;0.30;99.90
24470;DHT22;12635;50.852;5.676;2023-01-25T12:12:51;0.20;99.90
24470;DHT22;12635;50.852;5.676;2023-01-25T12:15:24;0.20;99.90
24470;DHT22;12635;50.852;5.676;2023-01-25T12:18:07;0.20;99.90
24470;DHT22;12635;50.852;5.676;2023-01-25T12:20:42;0.20;99.90
24470;DHT22;12635;50.852;5.676;2023-01-25T12:23:22;0.20;99.90
24470;DHT22;12635;50.852;5.676;2023-01-25T12:25:55;0.20;99.90
24470;DHT22;12635;50.852;5.676;2023-01-25T12:28:28;0.20;99.90
24470;DHT22;12635;50.852;5.676;2023-01-25T12:30:58;0.20;99.90
24470;DHT22;12635;50.852;5.676;2023-01-25T12:33:29;0.20;99.90
24470;DHT22;12635;50.852;5.676;2023-01-25T12:35:59;0.10;99.90
24470;DHT22;12635;50.852;5.676;2023-01-25T12:38:29;0.00;99.90
24470;DHT22;12635;50.852;5.676;2023-01-25T12:40:58;0.10;99.90
24470;DHT22;12635;50.852;5.676;2023-01-25T12:43:30;0.00;99.90
24470;DHT22;12635;50.852;5.676;2023-01-25T12:46:00;0.20;99.90
24470;DHT22;12635;50.852;5.676;2023-01-25T12:48:28;0.10;99.90
24470;DHT22;12635;50.852;5.676;2023-01-25T12:50:56;0.20;99.90
24470;DHT22;12635;50.852;5.676;2023-01-25T12:53:24;0.10;99.90
24470;DHT22;12635;50.852;5.676;2023-01-25T12:55:52;0.10;99.90
24470;DHT22;12635;50.852;5.676;2023-01-25T12:58:21;0.10;99.90
24470;DHT22;12635;50.852;5.676;2023-01-25T13:00:54;0.00;99.90
24470;DHT22;12635;50.852;5.676;2023-01-25T13:03:24;0.00;99.90
24470;DHT22;12635;50.852;5.676;2023-01-25T13:05:55;-0.10;99.90
24470;DHT22;12635;50.852;5.676;2023-01-25T13:08:29;-0.10;99.90
24470;DHT22;12635;50.852;5.676;2023-01-25T13:10:59;-0.20;99.90
24470;DHT22;12635;50.852;5.676;2023-01-25T13:13:29;-0.20;99.90
24470;DHT22;12635;50.852;5.676;2023-01-25T13:15:59;-0.20;99.90
24470;DHT22;12635;50.852;5.676;2023-01-25T13:18:46;-0.20;99.90
24470;DHT22;12635;50.852;5.676;2023-01-25T13:24:06;-0.10;99.90
24470;DHT22;12635;50.852;5.676;2023-01-25T13:26:37;-0.10;99.90
24470;DHT22;12635;50.852;5.676;2023-01-25T13:31:48;-0.10;99.90
24470;DHT22;12635;50.852;5.676;2023-01-25T13:37:01;-0.20;99.90
24470;DHT22;12635;50.852;5.676;2023-01-25T13:39:41;-0.20;99.90
24470;DHT22;12635;50.852;5.676;2023-01-25T13:42:21;-0.20;99.90
24470;DHT22;12635;50.852;5.676;2023-01-25T13:44:49;-0.20;99.90
24470;DHT22;12635;50.852;5.676;2023-01-25T13:47:19;-0.20;99.90
24470;DHT22;12635;50.852;5.676;2023-01-25T13:49:47;-0.30;99.90
24470;DHT22;12635;50.852;5.676;2023-01-25T13:52:16;-0.20;99.90
24470;DHT22;12635;50.852;5.676;2023-01-25T13:54:44;-0.20;99.90
24470;DHT22;12635;50.852;5.676;2023-01-25T13:57:11;-0.20;99.90
24470;DHT22;12635;50.852;5.676;2023-01-25T13:59:39;-0.20;99.90
24470;DHT22;12635;50.852;5.676;2023-01-25T14:02:10;-0.30;99.90
24470;DHT22;12635;50.852;5.676;2023-01-25T14:04:39;-0.40;99.90
24470;DHT22;12635;50.852;5.676;2023-01-25T14:07:10;-0.30;99.90
24470;DHT22;12635;50.852;5.676;2023-01-25T14:09:40;-0.20;99.90
24470;DHT22;12635;50.852;5.676;2023-01-25T14:12:07;-0.20;99.90
24470;DHT22;12635;50.852;5.676;2023-01-25T14:14:36;-0.20;99.90
24470;DHT22;12635;50.852;5.676;2023-01-25T14:17:16;-0.30;99.90
24470;DHT22;12635;50.852;5.676;2023-01-25T14:19:45;-0.20;99.90
24470;DHT22;12635;50.852;5.676;2023-01-25T14:22:21;-0.30;99.90
24470;DHT22;12635;50.852;5.676;2023-01-25T14:25:06;-0.30;99.90
24470;DHT22;12635;50.852;5.676;2023-01-25T14:27:41;-0.30;99.90
24470;DHT22;12635;50.852;5.676;2023-01-25T14:30:13;-0.20;99.90
24470;DHT22;12635;50.852;5.676;2023-01-25T14:32:41;-0.30;99.90
24470;DHT22;12635;50.852;5.676;2023-01-25T14:38:26;-0.40;99.90
24470;DHT22;12635;50.852;5.676;2023-01-25T14:40:54;-0.40;99.90
24470;DHT22;12635;50.852;5.676;2023-01-25T14:43:21;-0.40;99.90
24470;DHT22;12635;50.852;5.676;2023-01-25T14:45:49;-0.40;99.90
24470;DHT22;12635;50.852;5.676;2023-01-25T14:51:19;-0.40;99.90
24470;DHT22;12635;50.852;5.676;2023-01-25T14:53:51;-0.40;99.90
24470;DHT22;12635;50.852;5.676;2023-01-25T14:56:25;-0.50;99.90
24470;DHT22;12635;50.852;5.676;2023-01-25T14:58:55;-0.50;99.90
24470;DHT22;12635;50.852;5.676;2023-01-25T15:01:26;-0.50;99.90
24470;DHT22;12635;50.852;5.676;2023-01-25T15:03:54;-0.50;99.90
24470;DHT22;12635;50.852;5.676;2023-01-25T15:06:21;-0.50;99.90
24470;DHT22;12635;50.852;5.676;2023-01-25T15:08:49;-0.50;99.90
24470;DHT22;12635;50.852;5.676;2023-01-25T15:11:30;-0.60;99.90
24470;DHT22;12635;50.852;5.676;2023-01-25T15:14:13;-0.50;99.90
24470;DHT22;12635;50.852;5.676;2023-01-25T15:16:41;-0.50;99.90
24470;DHT22;12635;50.852;5.676;2023-01-25T15:19:19;-0.50;99.90
24470;DHT22;12635;50.852;5.676;2023-01-25T15:21:46;-0.50;99.90
24470;DHT22;12635;50.852;5.676;2023-01-25T15:24:15;-0.50;99.90
24470;DHT22;12635;50.852;5.676;2023-01-25T15:26:42;-0.60;99.90
24470;DHT22;12635;50.852;5.676;2023-01-25T15:29:11;-0.50;99.90
24470;DHT22;12635;50.852;5.676;2023-01-25T15:31:38;-0.60;99.90
24470;DHT22;12635;50.852;5.676;2023-01-25T15:34:08;-0.60;99.90
24470;DHT22;12635;50.852;5.676;2023-01-25T15:36:38;-0.50;99.90
24470;DHT22;12635;50.852;5.676;2023-01-25T15:39:05;-0.60;99.90
24470;DHT22;12635;50.852;5.676;2023-01-25T15:41:33;-0.60;99.90
24470;DHT22;12635;50.852;5.676;2023-01-25T15:44:00;-0.60;99.90
24470;DHT22;12635;50.852;5.676;2023-01-25T15:46:27;-0.60;99.90
24470;DHT22;12635;50.852;5.676;2023-01-25T15:48:54;-0.60;99.90
24470;DHT22;12635;50.852;5.676;2023-01-25T15:51:21;-0.70;99.90
24470;DHT22;12635;50.852;5.676;2023-01-25T15:53:48;-0.80;99.90
24470;DHT22;12635;50.852;5.676;2023-01-25T15:56:16;-0.80;99.90
24470;DHT22;12635;50.852;5.676;2023-01-25T15:58:46;-0.80;99.90
24470;DHT22;12635;50.852;5.676;2023-01-25T16:01:13;-0.80;99.90
24470;DHT22;12635;50.852;5.676;2023-01-25T16:03:40;-0.70;99.90
24470;DHT22;12635;50.852;5.676;2023-01-25T16:06:15;-0.80;99.90
24470;DHT22;12635;50.852;5.676;2023-01-25T16:08:46;-0.90;99.90
24470;DHT22;12635;50.852;5.676;2023-01-25T16:11:13;-0.90;99.90
24470;DHT22;12635;50.852;5.676;2023-01-25T16:13:39;-0.80;99.90